Time,TemperatureF,DewpointF,PressureIn,WindDirection,WindDirectionDegrees,WindSpeedMPH,WindSpeedGustMPH,Humidity,HourlyPrecipIn,Conditions,Clouds,dailyrainin,SolarRadiationWatts/m^2,SoftwareType,DateUTC
2013-07-03 00:05:00,68.8,64.0,30.03,NNW,331,0.0,-999.0,85,-99.99,,,0.00,0,weatherlink.com 1.10,2013-07-03 05:05:00,
2013-07-03 00:20:00,68.5,64.0,30.02,NNW,331,0.0,-999.0,85,-99.99,,,0.00,0,weatherlink.com 1.10,2013-07-03 05:20:00,
2013-07-03 00:35:00,68.1,64.0,30.02,NNW,331,0.0,-999.0,85,-99.99,,,0.00,0,weatherlink.com 1.10,2013-07-03 05:35:00,
2013-07-03 01:05:00,67.4,63.0,30.03,NNW,331,0.0,-999.0,86,-99.99,,,0.00,0,weatherlink.com 1.10,2013-07-03 06:05:00,
2013-07-03 01:20:00,67.0,63.0,30.03,NNW,331,0.0,-999.0,86,-99.99,,,0.00,0,weatherlink.com 1.10,2013-07-03 06:20:00,
2013-07-03 01:35:00,66.6,63.0,30.03,NNW,331,0.0,-999.0,87,-99.99,,,0.00,0,weatherlink.com 1.10,2013-07-03 06:35:00,
2013-07-03 01:50:00,66.2,62.0,30.03,NNW,331,0.0,-999.0,87,-99.99,,,0.00,0,weatherlink.com 1.10,2013-07-03 06:50:00,
2013-07-03 02:05:00,65.8,62.0,30.03,NNW,331,0.0,-999.0,87,-99.99,,,0.00,0,weatherlink.com 1.10,2013-07-03 07:05:00,
2013-07-03 02:20:00,65.5,62.0,30.03,NNW,331,0.0,-999.0,88,-99.99,,,0.00,0,weatherlink.com 1.10,2013-07-03 07:20:00,
2013-07-03 02:35:00,65.2,62.0,30.02,NNW,331,0.0,-999.0,89,-99.99,,,0.00,0,weatherlink.com 1.10,2013-07-03 07:35:00,
2013-07-03 02:50:00,64.9,62.0,30.02,NNW,331,0.0,-999.0,89,-99.99,,,0.00,0,weatherlink.com 1.10,2013-07-03 07:50:00,
2013-07-03 03:05:00,64.7,62.0,30.03,NNW,331,0.0,-999.0,89,-99.99,,,0.00,0,weatherlink.com 1.10,2013-07-03 08:05:00,
2013-07-03 03:20:00,64.4,62.0,30.02,NNW,331,0.0,-999.0,90,-99.99,,,0.00,0,weatherlink.com 1.10,2013-07-03 08:20:00,
2013-07-03 03:35:00,64.1,61.0,30.03,NNW,331,0.0,-999.0,90,-99.99,,,0.00,0,weatherlink.com 1.10,2013-07-03 08:35:00,
2013-07-03 03:50:00,63.9,61.0,30.02,NNW,331,0.0,-999.0,90,-99.99,,,0.00,0,weatherlink.com 1.10,2013-07-03 08:50:00,
2013-07-03 04:05:00,63.7,61.0,30.03,NNW,331,0.0,-999.0,90,-99.99,,,0.00,0,weatherlink.com 1.10,2013-07-03 09:05:00,
2013-07-03 04:20:00,63.4,61.0,30.03,NNW,331,0.0,-999.0,91,-99.99,,,0.00,0,weatherlink.com 1.10,2013-07-03 09:20:00,
2013-07-03 04:35:00,63.2,61.0,30.03,NNW,331,0.0,-999.0,91,-99.99,,,0.00,0,weatherlink.com 1.10,2013-07-03 09:35:00,
2013-07-03 04:50:00,63.0,60.0,30.03,NNW,331,0.0,-999.0,91,-99.99,,,0.00,0,weatherlink.com 1.10,2013-07-03 09:50:00,
2013-07-03 05:05:00,62.9,60.0,30.04,NNW,331,0.0,-999.0,91,-99.99,,,0.00,0,weatherlink.com 1.10,2013-07-03 10:05:00,
2013-07-03 05:20:00,62.8,61.0,30.05,NNW,331,0.0,-999.0,92,-99.99,,,0.00,0,weatherlink.com 1.10,2013-07-03 10:20:00,
2013-07-03 05:35:00,62.6,60.0,30.04,NNW,331,0.0,-999.0,92,-99.99,,,0.00,0,weatherlink.com 1.10,2013-07-03 10:35:00,
2013-07-03 05:50:00,62.4,60.0,30.05,NNW,331,0.0,-999.0,92,-99.99,,,0.00,0,weatherlink.com 1.10,2013-07-03 10:50:00,
2013-07-03 06:05:00,62.3,60.0,30.05,NNW,331,0.0,-999.0,92,-99.99,,,0.00,5,weatherlink.com 1.10,2013-07-03 11:05:00,
2013-07-03 06:35:00,62.0,60.0,30.06,NNW,331,0.0,-999.0,92,-99.99,,,0.00,12,weatherlink.com 1.10,2013-07-03 11:35:00,
2013-07-03 06:50:00,62.0,60.0,30.07,ENE,71,0.0,-999.0,92,-99.99,,,0.00,16,weatherlink.com 1.10,2013-07-03 11:50:00,
2013-07-03 07:05:00,61.9,60.0,30.07,ENE,71,0.0,-999.0,92,-99.99,,,0.00,19,weatherlink.com 1.10,2013-07-03 12:05:00,
2013-07-03 07:20:00,62.2,60.0,30.08,ENE,71,0.0,-999.0,93,-99.99,,,0.00,26,weatherlink.com 1.10,2013-07-03 12:20:00,
2013-07-03 07:35:00,62.5,61.0,30.08,ENE,71,0.0,-999.0,93,-99.99,,,0.00,35,weatherlink.com 1.10,2013-07-03 12:35:00,
2013-07-03 08:05:00,63.6,62.0,30.09,ENE,71,0.0,-999.0,94,-99.99,,,0.00,65,weatherlink.com 1.10,2013-07-03 13:05:00,
2013-07-03 08:20:00,64.2,63.0,30.10,ENE,71,0.0,-999.0,95,-99.99,,,0.00,56,weatherlink.com 1.10,2013-07-03 13:20:00,
2013-07-03 08:35:00,64.8,63.0,30.09,ENE,71,0.0,-999.0,95,-99.99,,,0.00,74,weatherlink.com 1.10,2013-07-03 13:35:00,
2013-07-03 08:50:00,65.0,63.0,30.09,ENE,71,0.0,-999.0,94,-99.99,,,0.00,79,weatherlink.com 1.10,2013-07-03 13:50:00,
2013-07-03 09:06:00,65.7,64.0,30.09,ESE,118,0.0,-999.0,94,-99.99,,,0.00,155,weatherlink.com 1.10,2013-07-03 14:06:00,
2013-07-03 09:36:00,67.9,66.0,30.09,West,273,0.0,-999.0,92,-99.99,,,0.00,575,weatherlink.com 1.10,2013-07-03 14:36:00,
2013-07-03 10:06:00,70.9,65.0,30.09,North,360,0.0,-999.0,81,-99.99,,,0.00,134,weatherlink.com 1.10,2013-07-03 15:06:00,
2013-07-03 10:21:00,72.2,66.0,30.09,WNW,287,0.0,-999.0,80,-99.99,,,0.00,446,weatherlink.com 1.10,2013-07-03 15:21:00,
2013-07-03 10:36:00,72.5,65.0,30.08,North,360,0.0,-999.0,77,-99.99,,,0.00,181,weatherlink.com 1.10,2013-07-03 15:36:00,
2013-07-03 11:06:00,73.3,65.0,30.08,NNW,334,0.0,-999.0,75,-99.99,,,0.00,221,weatherlink.com 1.10,2013-07-03 16:06:00,
2013-07-03 11:36:00,73.5,66.0,30.08,NW,317,0.0,-999.0,76,-99.99,,,0.00,132,weatherlink.com 1.10,2013-07-03 16:36:00,
2013-07-03 11:51:00,74.3,68.0,30.08,NW,317,0.0,-999.0,80,-99.99,,,0.00,211,weatherlink.com 1.10,2013-07-03 16:51:00,
2013-07-03 12:06:00,75.2,66.0,30.08,SSW,193,0.0,-999.0,72,-99.99,,,0.00,128,weatherlink.com 1.10,2013-07-03 17:06:00,
2013-07-03 12:21:00,75.2,65.0,30.08,WNW,283,0.0,-999.0,71,-99.99,,,0.00,209,weatherlink.com 1.10,2013-07-03 17:21:00,
2013-07-03 12:36:00,75.0,65.0,30.07,NW,309,0.0,-999.0,70,-99.99,,,0.00,141,weatherlink.com 1.10,2013-07-03 17:36:00,
2013-07-03 12:51:00,76.2,66.0,30.07,NW,309,0.0,-999.0,70,-99.99,,,0.00,348,weatherlink.com 1.10,2013-07-03 17:51:00,
2013-07-03 13:06:00,76.4,65.0,30.07,NW,320,0.0,-999.0,68,-99.99,,,0.00,227,weatherlink.com 1.10,2013-07-03 18:06:00,
2013-07-03 13:21:00,75.5,67.0,30.07,NW,325,0.0,-999.0,76,-99.99,,,0.00,1121,weatherlink.com 1.10,2013-07-03 18:21:00,
2013-07-03 13:36:00,78.1,70.0,30.06,NW,325,0.0,-999.0,76,-99.99,,,0.00,1058,weatherlink.com 1.10,2013-07-03 18:36:00,
2013-07-03 14:21:00,78.3,66.0,30.05,NW,323,0.0,-999.0,65,-99.99,,,0.00,981,weatherlink.com 1.10,2013-07-03 19:21:00,
2013-07-03 14:36:00,79.4,66.0,30.05,NW,306,0.0,-999.0,63,-99.99,,,0.00,967,weatherlink.com 1.10,2013-07-03 19:36:00,
2013-07-03 14:51:00,79.9,68.0,30.04,NW,306,0.0,-999.0,66,-99.99,,,0.00,967,weatherlink.com 1.10,2013-07-03 19:51:00,
2013-07-03 15:06:00,79.5,66.0,30.04,NW,308,0.0,-999.0,64,-99.99,,,0.00,946,weatherlink.com 1.10,2013-07-03 20:06:00,
2013-07-03 15:21:00,79.9,67.0,30.04,NW,313,0.0,-999.0,64,-99.99,,,0.00,900,weatherlink.com 1.10,2013-07-03 20:21:00,
2013-07-03 15:36:00,80.0,67.0,30.04,NW,311,0.0,-999.0,64,-99.99,,,0.00,879,weatherlink.com 1.10,2013-07-03 20:36:00,
2013-07-03 15:52:00,79.7,64.0,30.03,NW,320,0.0,-999.0,60,-99.99,,,0.00,821,weatherlink.com 1.10,2013-07-03 20:52:00,
2013-07-03 16:22:00,78.4,67.0,30.02,West,273,0.0,-999.0,69,-99.99,,,0.00,130,weatherlink.com 1.10,2013-07-03 21:22:00,
2013-07-03 16:53:00,75.5,67.0,30.02,West,273,0.0,-999.0,75,-99.99,,,0.00,83,weatherlink.com 1.10,2013-07-03 21:53:00,
2013-07-03 17:22:00,76.0,67.0,30.01,West,273,0.0,-999.0,73,-99.99,,,0.00,65,weatherlink.com 1.10,2013-07-03 22:22:00,
2013-07-03 17:37:00,75.6,65.0,30.01,West,273,0.0,-999.0,69,-99.99,,,0.00,51,weatherlink.com 1.10,2013-07-03 22:37:00,
2013-07-03 17:52:00,76.2,66.0,30.01,West,273,0.0,-999.0,71,-99.99,,,0.00,37,weatherlink.com 1.10,2013-07-03 22:52:00,
2013-07-03 18:22:00,75.0,66.0,30.02,West,273,0.0,-999.0,74,-99.99,,,0.00,47,weatherlink.com 1.10,2013-07-03 23:22:00,
2013-07-03 18:37:00,74.9,66.0,30.01,West,273,0.0,-999.0,73,-99.99,,,0.00,32,weatherlink.com 1.10,2013-07-03 23:37:00,
2013-07-03 18:52:00,75.0,65.0,30.01,West,273,0.0,-999.0,71,-99.99,,,0.00,30,weatherlink.com 1.10,2013-07-03 23:52:00,
2013-07-03 19:07:00,75.1,66.0,30.01,West,273,0.0,-999.0,73,-99.99,,,0.00,56,weatherlink.com 1.10,2013-07-04 00:07:00,
2013-07-03 19:22:00,75.1,66.0,30.01,West,273,0.0,-999.0,72,-99.99,,,0.00,18,weatherlink.com 1.10,2013-07-04 00:22:00,
2013-07-03 19:37:00,75.0,66.0,30.01,West,273,0.0,-999.0,73,-99.99,,,0.00,12,weatherlink.com 1.10,2013-07-04 00:37:00,
2013-07-03 20:22:00,73.9,66.0,30.02,West,273,0.0,-999.0,76,-99.99,,,0.00,0,weatherlink.com 1.10,2013-07-04 01:22:00,
2013-07-03 20:37:00,73.5,66.0,30.02,West,273,0.0,-999.0,77,-99.99,,,0.00,0,weatherlink.com 1.10,2013-07-04 01:37:00,
2013-07-03 20:52:00,73.0,66.0,30.01,West,273,0.0,-999.0,78,-99.99,,,0.00,0,weatherlink.com 1.10,2013-07-04 01:52:00,
2013-07-03 21:07:00,72.5,66.0,30.02,West,273,0.0,-999.0,79,-99.99,,,0.00,0,weatherlink.com 1.10,2013-07-04 02:07:00,
2013-07-03 21:37:00,71.5,65.0,30.02,West,273,0.0,-999.0,81,-99.99,,,0.00,0,weatherlink.com 1.10,2013-07-04 02:37:00,
2013-07-03 22:07:00,70.5,65.0,30.03,West,273,0.0,-999.0,83,-99.99,,,0.00,0,weatherlink.com 1.10,2013-07-04 03:07:00,
2013-07-03 22:22:00,70.0,65.0,30.03,West,273,0.0,-999.0,83,-99.99,,,0.00,0,weatherlink.com 1.10,2013-07-04 03:22:00,
2013-07-03 22:37:00,69.5,65.0,30.03,West,273,0.0,-999.0,84,-99.99,,,0.00,0,weatherlink.com 1.10,2013-07-04 03:37:00,
2013-07-03 22:52:00,69.2,65.0,30.03,West,273,0.0,-999.0,85,-99.99,,,0.00,0,weatherlink.com 1.10,2013-07-04 03:52:00,
2013-07-03 23:07:00,68.8,65.0,30.04,West,273,0.0,-999.0,86,-99.99,,,0.00,0,weatherlink.com 1.10,2013-07-04 04:07:00,
2013-07-03 23:22:00,68.4,64.0,30.04,West,273,0.0,-999.0,86,-99.99,,,0.00,0,weatherlink.com 1.10,2013-07-04 04:22:00,
2013-07-03 23:37:00,68.0,64.0,30.04,West,273,0.0,-999.0,87,-99.99,,,0.00,0,weatherlink.com 1.10,2013-07-04 04:37:00,
2013-07-03 23:52:00,67.7,64.0,30.04,West,273,0.0,-999.0,87,-99.99,,,0.00,0,weatherlink.com 1.10,2013-07-04 04:52:00,